Pays
Station

 

Conditions  météo  pour  Lovelock, Derby Field  -  Etats-Unis    Etats-Unis

  
-6 °C
    
 
 

METAR pour Lovelock, Derby Field :

KLOL 221553Z AUTO 35003KT 10SM CLR M06/M10 A3006 RMK AO2 SLP211 T10611100

 

Voici le bulletin pour Lovelock, Derby Field - Etats-Unis.
 
Le bulletin a été fait il y a 57 minutes, à 15:53 UTC .
Le vent soufflait à la vitesse de 1.5 mètres par seconde de Nord (350°).
 
La température était de -6 °C, avec un point de rosée à -10 °C.
La température ressentie était de -8 °C.
 
La pression atmosphérique était de 1018 hPa.
L'humidité relative était de 73.2%.
 
Le ciel était clair.
 
La visibilité globale était de 16.1 kilomètres.
 

 
 
 

Pays :   A   B   C   D   E   F   G   H   I   J   K   L   M   N   O   P   Q   R   S   T   U   V   W   Y   Z

 

Partenaires :  Info Météo avec Met'info
Météo Marine avec MeteoMarine.net
Infos Site  |  Infos Légales  |  Crédits  |  Confidentialité
Contactez-nous  |  Ajouter aux favoris
© 2013-2019 METAR - Tous droits réservés